sensor_id;sensor_type;location;lat;lon;timestamp;pressure;altitude;pressure_sealevel;temperature;humidity
6942;BME280;3510;43.200;27.920;2023-04-01T00:00:22;100266.88;;;16.25;50.65
6942;BME280;3510;43.200;27.920;2023-04-01T00:02:50;100256.78;;;16.43;49.94
6942;BME280;3510;43.200;27.920;2023-04-01T00:05:17;100216.00;;;16.07;49.66
6942;BME280;3510;43.200;27.920;2023-04-01T00:07:56;100200.69;;;15.89;49.87
6942;BME280;3510;43.200;27.920;2023-04-01T00:10:22;100261.41;;;16.50;49.29
6942;BME280;3510;43.200;27.920;2023-04-01T00:12:49;100252.97;;;16.35;49.40
6942;BME280;3510;43.200;27.920;2023-04-01T00:15:16;100244.38;;;16.49;49.38
6942;BME280;3510;43.200;27.920;2023-04-01T00:17:42;100254.09;;;16.40;49.28
6942;BME280;3510;43.200;27.920;2023-04-01T00:20:12;100213.38;;;16.55;48.90
6942;BME280;3510;43.200;27.920;2023-04-01T00:22:39;100238.47;;;16.32;49.36
6942;BME280;3510;43.200;27.920;2023-04-01T00:25:06;100248.69;;;16.50;49.39
6942;BME280;3510;43.200;27.920;2023-04-01T00:27:33;100248.88;;;16.20;49.68
6942;BME280;3510;43.200;27.920;2023-04-01T00:30:00;100245.09;;;15.97;50.23
6942;BME280;3510;43.200;27.920;2023-04-01T00:32:27;100223.56;;;15.75;50.74
6942;BME280;3510;43.200;27.920;2023-04-01T00:34:54;100239.66;;;16.06;50.13
6942;BME280;3510;43.200;27.920;2023-04-01T00:37:22;100233.44;;;16.01;49.89
6942;BME280;3510;43.200;27.920;2023-04-01T00:39:50;100240.22;;;16.17;49.62
6942;BME280;3510;43.200;27.920;2023-04-01T00:42:16;100234.50;;;16.21;49.72
6942;BME280;3510;43.200;27.920;2023-04-01T00:44:45;100240.59;;;16.25;49.44
6942;BME280;3510;43.200;27.920;2023-04-01T00:47:14;100227.97;;;16.26;49.26
6942;BME280;3510;43.200;27.920;2023-04-01T00:49:44;100213.31;;;16.20;48.94
6942;BME280;3510;43.200;27.920;2023-04-01T00:52:15;100216.56;;;16.18;48.94
6942;BME280;3510;43.200;27.920;2023-04-01T00:54:46;100211.16;;;16.12;49.23
6942;BME280;3510;43.200;27.920;2023-04-01T00:57:18;100219.34;;;16.23;49.10
6942;BME280;3510;43.200;27.920;2023-04-01T00:59:49;100225.09;;;17.03;47.53
6942;BME280;3510;43.200;27.920;2023-04-01T01:02:18;100232.88;;;17.42;46.11
6942;BME280;3510;43.200;27.920;2023-04-01T01:04:45;100230.13;;;17.37;45.85
6942;BME280;3510;43.200;27.920;2023-04-01T01:07:20;100224.88;;;16.48;48.00
6942;BME280;3510;43.200;27.920;2023-04-01T01:09:58;100239.00;;;16.27;49.05
6942;BME280;3510;43.200;27.920;2023-04-01T01:12:34;100232.81;;;16.54;48.23
6942;BME280;3510;43.200;27.920;2023-04-01T01:15:11;100232.66;;;16.35;48.81
6942;BME280;3510;43.200;27.920;2023-04-01T01:17:50;100218.13;;;16.00;49.28
6942;BME280;3510;43.200;27.920;2023-04-01T01:20:35;100236.34;;;15.76;49.96
6942;BME280;3510;43.200;27.920;2023-04-01T01:23:28;100220.91;;;15.42;51.16
6942;BME280;3510;43.200;27.920;2023-04-01T01:26:18;100226.44;;;15.97;50.44
6942;BME280;3510;43.200;27.920;2023-04-01T01:29:00;100223.03;;;16.13;49.41
6942;BME280;3510;43.200;27.920;2023-04-01T01:31:35;100217.81;;;16.59;47.98
6942;BME280;3510;43.200;27.920;2023-04-01T01:34:13;100224.72;;;16.45;48.43
6942;BME280;3510;43.200;27.920;2023-04-01T01:36:48;100211.69;;;16.55;48.19
6942;BME280;3510;43.200;27.920;2023-04-01T01:39:18;100198.28;;;16.41;48.33
6942;BME280;3510;43.200;27.920;2023-04-01T01:41:47;100207.50;;;16.23;49.31
6942;BME280;3510;43.200;27.920;2023-04-01T01:44:15;100191.38;;;15.90;49.67
6942;BME280;3510;43.200;27.920;2023-04-01T01:46:44;100208.69;;;15.81;49.73
6942;BME280;3510;43.200;27.920;2023-04-01T01:49:13;100212.50;;;15.89;50.20
6942;BME280;3510;43.200;27.920;2023-04-01T01:51:41;100208.72;;;16.13;49.44
6942;BME280;3510;43.200;27.920;2023-04-01T01:54:17;100216.38;;;16.48;48.57
6942;BME280;3510;43.200;27.920;2023-04-01T01:56:46;100219.22;;;16.70;48.11
6942;BME280;3510;43.200;27.920;2023-04-01T01:59:16;100214.00;;;16.51;48.40
6942;BME280;3510;43.200;27.920;2023-04-01T02:01:48;100223.41;;;15.71;49.90
6942;BME280;3510;43.200;27.920;2023-04-01T02:04:17;100199.34;;;15.65;50.39
6942;BME280;3510;43.200;27.920;2023-04-01T02:06:50;100195.91;;;15.79;50.16
6942;BME280;3510;43.200;27.920;2023-04-01T02:09:20;100183.38;;;16.31;49.00
6942;BME280;3510;43.200;27.920;2023-04-01T02:11:49;100210.03;;;16.23;48.78
6942;BME280;3510;43.200;27.920;2023-04-01T02:14:19;100187.25;;;16.41;48.13
6942;BME280;3510;43.200;27.920;2023-04-01T02:16:49;100170.78;;;16.67;47.85
6942;BME280;3510;43.200;27.920;2023-04-01T02:19:20;100169.66;;;16.28;48.42
6942;BME280;3510;43.200;27.920;2023-04-01T02:21:50;100179.75;;;16.26;48.62
6942;BME280;3510;43.200;27.920;2023-04-01T02:24:22;100125.22;;;16.19;48.37
6942;BME280;3510;43.200;27.920;2023-04-01T02:26:51;100181.81;;;17.37;46.92
6942;BME280;3510;43.200;27.920;2023-04-01T02:29:21;100177.59;;;18.53;44.09
6942;BME280;3510;43.200;27.920;2023-04-01T02:31:49;100168.69;;;18.83;42.44
6942;BME280;3510;43.200;27.920;2023-04-01T02:34:16;100181.94;;;18.15;43.69
6942;BME280;3510;43.200;27.920;2023-04-01T02:36:43;100169.75;;;17.71;44.22
6942;BME280;3510;43.200;27.920;2023-04-01T02:39:10;100170.09;;;17.05;46.18
6942;BME280;3510;43.200;27.920;2023-04-01T02:41:41;100166.31;;;16.79;47.25
6942;BME280;3510;43.200;27.920;2023-04-01T02:44:08;100165.63;;;17.17;46.46
6942;BME280;3510;43.200;27.920;2023-04-01T02:46:34;100164.28;;;16.90;46.78
6942;BME280;3510;43.200;27.920;2023-04-01T02:49:01;100155.13;;;16.76;47.09
6942;BME280;3510;43.200;27.920;2023-04-01T02:51:27;100158.19;;;17.40;45.68
6942;BME280;3510;43.200;27.920;2023-04-01T02:53:54;100156.53;;;17.05;45.96
6942;BME280;3510;43.200;27.920;2023-04-01T02:56:23;100154.63;;;17.54;45.59
6942;BME280;3510;43.200;27.920;2023-04-01T02:58:52;100144.78;;;18.20;43.51
6942;BME280;3510;43.200;27.920;2023-04-01T03:01:19;100138.19;;;18.04;44.05
6942;BME280;3510;43.200;27.920;2023-04-01T03:03:45;100141.25;;;17.78;44.68
6942;BME280;3510;43.200;27.920;2023-04-01T03:06:12;100135.88;;;17.16;46.18
6942;BME280;3510;43.200;27.920;2023-04-01T03:08:40;100132.16;;;17.28;46.21
6942;BME280;3510;43.200;27.920;2023-04-01T03:11:06;100129.03;;;17.71;45.21
6942;BME280;3510;43.200;27.920;2023-04-01T03:13:32;100127.16;;;17.66;45.00
6942;BME280;3510;43.200;27.920;2023-04-01T03:16:00;100123.81;;;17.67;45.08
6942;BME280;3510;43.200;27.920;2023-04-01T03:18:27;100124.31;;;17.78;44.88
6942;BME280;3510;43.200;27.920;2023-04-01T03:20:53;100120.97;;;17.42;45.59
6942;BME280;3510;43.200;27.920;2023-04-01T03:23:20;100125.66;;;17.33;45.63
6942;BME280;3510;43.200;27.920;2023-04-01T03:25:48;100119.50;;;16.92;46.47
6942;BME280;3510;43.200;27.920;2023-04-01T03:28:14;100113.56;;;17.09;46.50
6942;BME280;3510;43.200;27.920;2023-04-01T03:30:41;100110.03;;;17.25;46.24
6942;BME280;3510;43.200;27.920;2023-04-01T03:33:09;100107.00;;;17.71;45.14
6942;BME280;3510;43.200;27.920;2023-04-01T03:35:35;100109.72;;;17.37;46.10
6942;BME280;3510;43.200;27.920;2023-04-01T03:38:02;100101.03;;;18.29;44.34
6942;BME280;3510;43.200;27.920;2023-04-01T03:40:29;100115.66;;;19.18;42.26
6942;BME280;3510;43.200;27.920;2023-04-01T03:42:58;100120.22;;;19.72;41.30
6942;BME280;3510;43.200;27.920;2023-04-01T03:45:25;100114.78;;;20.11;40.56
6942;BME280;3510;43.200;27.920;2023-04-01T03:47:52;100116.81;;;20.21;39.79
6942;BME280;3510;43.200;27.920;2023-04-01T03:50:20;100126.25;;;19.98;40.53
6942;BME280;3510;43.200;27.920;2023-04-01T03:52:47;100130.25;;;19.45;41.88
6942;BME280;3510;43.200;27.920;2023-04-01T03:55:14;100111.97;;;18.89;43.07
6942;BME280;3510;43.200;27.920;2023-04-01T03:57:43;100115.66;;;18.13;45.43
6942;BME280;3510;43.200;27.920;2023-04-01T04:00:10;100054.50;;;17.73;46.15
6942;BME280;3510;43.200;27.920;2023-04-01T04:02:37;100140.03;;;16.79;49.84
6942;BME280;3510;43.200;27.920;2023-04-01T04:05:04;100135.59;;;16.40;51.49
6942;BME280;3510;43.200;27.920;2023-04-01T04:07:34;100112.88;;;17.13;48.51
6942;BME280;3510;43.200;27.920;2023-04-01T04:10:00;100132.84;;;17.24;48.58
6942;BME280;3510;43.200;27.920;2023-04-01T04:12:27;100132.97;;;17.27;49.08
6942;BME280;3510;43.200;27.920;2023-04-01T04:14:54;100121.09;;;17.45;48.00
6942;BME280;3510;43.200;27.920;2023-04-01T04:17:20;100122.13;;;16.59;50.47
6942;BME280;3510;43.200;27.920;2023-04-01T04:19:47;100114.41;;;16.40;50.71
6942;BME280;3510;43.200;27.920;2023-04-01T04:22:14;100109.47;;;16.77;50.34
6942;BME280;3510;43.200;27.920;2023-04-01T04:24:42;100117.19;;;17.34;49.33
6942;BME280;3510;43.200;27.920;2023-04-01T04:27:09;100120.97;;;17.79;48.02
6942;BME280;3510;43.200;27.920;2023-04-01T04:29:35;100121.63;;;18.14;47.50
6942;BME280;3510;43.200;27.920;2023-04-01T04:32:02;100078.28;;;17.93;47.33
6942;BME280;3510;43.200;27.920;2023-04-01T04:34:29;100122.28;;;19.36;45.19
6942;BME280;3510;43.200;27.920;2023-04-01T04:36:55;100110.13;;;19.30;45.09
6942;BME280;3510;43.200;27.920;2023-04-01T04:39:22;100115.66;;;19.18;45.54
6942;BME280;3510;43.200;27.920;2023-04-01T04:41:52;100100.91;;;19.33;44.36
6942;BME280;3510;43.200;27.920;2023-04-01T04:44:19;100047.00;;;19.02;44.07
6942;BME280;3510;43.200;27.920;2023-04-01T04:46:46;100059.47;;;20.38;42.85
6942;BME280;3510;43.200;27.920;2023-04-01T04:49:12;100092.84;;;21.24;41.89
6942;BME280;3510;43.200;27.920;2023-04-01T04:51:39;100103.84;;;21.48;41.71
6942;BME280;3510;43.200;27.920;2023-04-01T04:54:06;100112.94;;;21.69;40.21
6942;BME280;3510;43.200;27.920;2023-04-01T04:56:33;100101.69;;;21.64;40.98
6942;BME280;3510;43.200;27.920;2023-04-01T04:59:02;100101.84;;;22.02;40.26
6942;BME280;3510;43.200;27.920;2023-04-01T05:01:29;100099.88;;;22.21;39.74
6942;BME280;3510;43.200;27.920;2023-04-01T05:03:56;100117.09;;;21.95;39.00
6942;BME280;3510;43.200;27.920;2023-04-01T05:06:22;100082.53;;;21.81;39.09
6942;BME280;3510;43.200;27.920;2023-04-01T05:08:53;100107.28;;;22.45;38.65
6942;BME280;3510;43.200;27.920;2023-04-01T05:11:20;100112.50;;;22.49;39.08
6942;BME280;3510;43.200;27.920;2023-04-01T05:13:47;100099.34;;;22.03;38.80
6942;BME280;3510;43.200;27.920;2023-04-01T05:16:19;100101.38;;;21.83;38.84
6942;BME280;3510;43.200;27.920;2023-04-01T05:18:50;100101.16;;;21.17;39.60
6942;BME280;3510;43.200;27.920;2023-04-01T05:21:17;100102.34;;;21.57;39.60
6942;BME280;3510;43.200;27.920;2023-04-01T05:23:44;100087.53;;;20.37;41.02
6942;BME280;3510;43.200;27.920;2023-04-01T05:26:13;100088.25;;;19.83;42.79
6942;BME280;3510;43.200;27.920;2023-04-01T05:28:40;100050.53;;;18.83;44.23
6942;BME280;3510;43.200;27.920;2023-04-01T05:31:07;100073.44;;;18.40;45.73
6942;BME280;3510;43.200;27.920;2023-04-01T05:33:35;100054.66;;;18.37;46.31
6942;BME280;3510;43.200;27.920;2023-04-01T05:36:06;100078.91;;;18.70;45.65
6942;BME280;3510;43.200;27.920;2023-04-01T05:38:33;100078.22;;;18.32;46.47
6942;BME280;3510;43.200;27.920;2023-04-01T05:41:02;100066.75;;;20.00;43.45
6942;BME280;3510;43.200;27.920;2023-04-01T05:43:29;100052.00;;;20.70;41.34
6942;BME280;3510;43.200;27.920;2023-04-01T05:45:56;100065.41;;;20.37;41.87
6942;BME280;3510;43.200;27.920;2023-04-01T05:48:23;100057.28;;;21.05;41.00
6942;BME280;3510;43.200;27.920;2023-04-01T05:50:50;100056.28;;;20.18;42.43
6942;BME280;3510;43.200;27.920;2023-04-01T05:53:17;100029.09;;;19.69;43.40
6942;BME280;3510;43.200;27.920;2023-04-01T05:55:44;100041.56;;;20.11;42.55
6942;BME280;3510;43.200;27.920;2023-04-01T05:58:11;100022.28;;;19.70;43.48
6942;BME280;3510;43.200;27.920;2023-04-01T06:00:38;100051.81;;;20.13;42.95
6942;BME280;3510;43.200;27.920;2023-04-01T06:03:05;100053.69;;;20.98;41.25
6942;BME280;3510;43.200;27.920;2023-04-01T06:05:39;100044.78;;;21.14;40.57
6942;BME280;3510;43.200;27.920;2023-04-01T06:08:11;100047.53;;;22.50;38.54
6942;BME280;3510;43.200;27.920;2023-04-01T06:10:50;100008.09;;;22.10;39.22
6942;BME280;3510;43.200;27.920;2023-04-01T06:13:26;100042.56;;;22.21;39.42
6942;BME280;3510;43.200;27.920;2023-04-01T06:16:03;100047.47;;;22.13;39.76
6942;BME280;3510;43.200;27.920;2023-04-01T06:18:52;100040.75;;;22.89;37.91
6942;BME280;3510;43.200;27.920;2023-04-01T06:21:38;100031.19;;;22.82;37.47
6942;BME280;3510;43.200;27.920;2023-04-01T06:24:21;100038.13;;;23.26;36.89
6942;BME280;3510;43.200;27.920;2023-04-01T06:26:59;100034.06;;;23.37;36.39
6942;BME280;3510;43.200;27.920;2023-04-01T06:29:44;100025.78;;;21.66;39.20
6942;BME280;3510;43.200;27.920;2023-04-01T06:32:37;100037.56;;;20.72;41.54
6942;BME280;3510;43.200;27.920;2023-04-01T06:35:17;100029.72;;;20.40;42.10
6942;BME280;3510;43.200;27.920;2023-04-01T06:38:02;100027.91;;;20.11;43.42
6942;BME280;3510;43.200;27.920;2023-04-01T06:40:46;100021.47;;;20.22;43.41
6942;BME280;3510;43.200;27.920;2023-04-01T06:43:21;100014.78;;;20.00;43.84
6942;BME280;3510;43.200;27.920;2023-04-01T06:45:55;100021.84;;;20.34;43.37
6942;BME280;3510;43.200;27.920;2023-04-01T06:48:38;100016.25;;;19.93;44.47
6942;BME280;3510;43.200;27.920;2023-04-01T06:51:16;100017.47;;;20.30;43.18
6942;BME280;3510;43.200;27.920;2023-04-01T06:53:52;100019.28;;;20.33;43.37
6942;BME280;3510;43.200;27.920;2023-04-01T06:56:26;100016.91;;;22.18;40.37
6942;BME280;3510;43.200;27.920;2023-04-01T06:58:57;100015.38;;;22.62;38.94
6942;BME280;3510;43.200;27.920;2023-04-01T07:01:29;100023.63;;;22.88;38.68
6942;BME280;3510;43.200;27.920;2023-04-01T07:04:00;99985.19;;;22.14;38.52
6942;BME280;3510;43.200;27.920;2023-04-01T07:06:32;100021.19;;;21.54;40.67
6942;BME280;3510;43.200;27.920;2023-04-01T07:09:03;100028.91;;;21.25;41.17
6942;BME280;3510;43.200;27.920;2023-04-01T07:11:33;100031.38;;;20.92;41.71
6942;BME280;3510;43.200;27.920;2023-04-01T07:14:01;100024.03;;;21.33;41.32
6942;BME280;3510;43.200;27.920;2023-04-01T07:16:29;100030.41;;;21.19;41.76
6942;BME280;3510;43.200;27.920;2023-04-01T07:18:59;100018.09;;;21.34;41.64
6942;BME280;3510;43.200;27.920;2023-04-01T07:21:29;100018.91;;;21.98;40.52
6942;BME280;3510;43.200;27.920;2023-04-01T07:23:57;100018.22;;;23.14;38.50
6942;BME280;3510;43.200;27.920;2023-04-01T07:26:27;100024.81;;;22.65;38.77
6942;BME280;3510;43.200;27.920;2023-04-01T07:28:55;100009.66;;;22.03;39.85
6942;BME280;3510;43.200;27.920;2023-04-01T07:31:27;100017.09;;;22.27;39.77
6942;BME280;3510;43.200;27.920;2023-04-01T07:33:59;100009.78;;;22.08;40.17
6942;BME280;3510;43.200;27.920;2023-04-01T07:36:30;100004.63;;;21.73;40.98
6942;BME280;3510;43.200;27.920;2023-04-01T07:39:03;100003.66;;;21.08;42.21
6942;BME280;3510;43.200;27.920;2023-04-01T07:41:33;99999.06;;;21.89;41.01
6942;BME280;3510;43.200;27.920;2023-04-01T07:50:00;99986.94;;;21.84;40.84
6942;BME280;3510;43.200;27.920;2023-04-01T07:52:44;99990.31;;;21.81;41.00
6942;BME280;3510;43.200;27.920;2023-04-01T07:55:30;99982.72;;;22.94;39.18
6942;BME280;3510;43.200;27.920;2023-04-01T07:58:14;99988.41;;;22.81;38.96
6942;BME280;3510;43.200;27.920;2023-04-01T08:00:58;99981.84;;;23.83;37.72
6942;BME280;3510;43.200;27.920;2023-04-01T08:03:31;99978.41;;;23.83;37.54
6942;BME280;3510;43.200;27.920;2023-04-01T08:06:06;99971.25;;;22.80;39.31
6942;BME280;3510;43.200;27.920;2023-04-01T08:08:46;99964.41;;;22.79;39.98
6942;BME280;3510;43.200;27.920;2023-04-01T08:11:44;99970.44;;;22.42;40.85
6942;BME280;3510;43.200;27.920;2023-04-01T08:14:21;99958.81;;;22.18;41.31
6942;BME280;3510;43.200;27.920;2023-04-01T08:16:56;99949.59;;;21.92;42.03
6942;BME280;3510;43.200;27.920;2023-04-01T08:19:31;99919.63;;;21.23;42.85
6942;BME280;3510;43.200;27.920;2023-04-01T08:22:09;99952.66;;;22.13;41.45
6942;BME280;3510;43.200;27.920;2023-04-01T08:24:40;99911.19;;;21.93;40.86
6942;BME280;3510;43.200;27.920;2023-04-01T08:27:12;99901.50;;;22.56;40.15
6942;BME280;3510;43.200;27.920;2023-04-01T08:29:48;99931.81;;;23.63;38.70
6942;BME280;3510;43.200;27.920;2023-04-01T08:32:19;99944.72;;;23.19;39.55
6942;BME280;3510;43.200;27.920;2023-04-01T08:34:55;99937.72;;;23.10;39.81
6942;BME280;3510;43.200;27.920;2023-04-01T08:37:30;99930.75;;;22.64;40.46
6942;BME280;3510;43.200;27.920;2023-04-01T08:40:05;99905.97;;;22.64;40.25
6942;BME280;3510;43.200;27.920;2023-04-01T08:42:55;99929.47;;;22.43;40.91
6942;BME280;3510;43.200;27.920;2023-04-01T08:45:44;99882.91;;;21.89;41.69
6942;BME280;3510;43.200;27.920;2023-04-01T08:48:36;99911.44;;;22.40;40.73
6942;BME280;3510;43.200;27.920;2023-04-01T08:51:18;99933.13;;;22.55;41.41
6942;BME280;3510;43.200;27.920;2023-04-01T08:54:03;99914.03;;;23.25;39.42
6942;BME280;3510;43.200;27.920;2023-04-01T08:56:39;99916.00;;;22.94;39.73
6942;BME280;3510;43.200;27.920;2023-04-01T08:59:19;99921.25;;;23.01;39.63
6942;BME280;3510;43.200;27.920;2023-04-01T09:02:02;99917.69;;;22.53;40.64
6942;BME280;3510;43.200;27.920;2023-04-01T09:04:58;99922.66;;;23.30;39.65
6942;BME280;3510;43.200;27.920;2023-04-01T09:07:40;99881.22;;;22.27;40.76
6942;BME280;3510;43.200;27.920;2023-04-01T09:10:30;99894.97;;;22.70;40.61
6942;BME280;3510;43.200;27.920;2023-04-01T09:13:18;99898.84;;;23.37;39.56
6942;BME280;3510;43.200;27.920;2023-04-01T09:15:59;99898.19;;;23.02;40.45
6942;BME280;3510;43.200;27.920;2023-04-01T09:18:48;99900.28;;;23.70;38.91
6942;BME280;3510;43.200;27.920;2023-04-01T09:21:33;99894.69;;;23.97;38.15
6942;BME280;3510;43.200;27.920;2023-04-01T09:24:19;99864.66;;;24.57;36.60
6942;BME280;3510;43.200;27.920;2023-04-01T09:27:02;99891.84;;;23.80;38.46
6942;BME280;3510;43.200;27.920;2023-04-01T09:32:42;99883.09;;;21.98;42.10
6942;BME280;3510;43.200;27.920;2023-04-01T09:35:22;99861.13;;;22.08;42.04
6942;BME280;3510;43.200;27.920;2023-04-01T09:37:57;99848.16;;;21.64;42.93
6942;BME280;3510;43.200;27.920;2023-04-01T09:40:37;99885.53;;;22.28;42.03
6942;BME280;3510;43.200;27.920;2023-04-01T09:43:25;99877.28;;;22.05;42.59
6942;BME280;3510;43.200;27.920;2023-04-01T09:46:03;99876.78;;;22.18;42.43
6942;BME280;3510;43.200;27.920;2023-04-01T09:48:46;99858.75;;;21.79;43.09
6942;BME280;3510;43.200;27.920;2023-04-01T09:51:26;99860.22;;;22.86;41.05
6942;BME280;3510;43.200;27.920;2023-04-01T09:54:06;99809.09;;;22.51;41.25
6942;BME280;3510;43.200;27.920;2023-04-01T09:59:48;99849.44;;;22.19;42.67
6942;BME280;3510;43.200;27.920;2023-04-01T10:08:33;99804.16;;;22.19;42.95
6942;BME280;3510;43.200;27.920;2023-04-01T10:11:20;99810.16;;;21.82;43.56
6942;BME280;3510;43.200;27.920;2023-04-01T10:17:00;99802.38;;;21.40;44.58
6942;BME280;3510;43.200;27.920;2023-04-01T10:19:53;99781.66;;;21.67;44.12
6942;BME280;3510;43.200;27.920;2023-04-01T10:28:12;99799.78;;;23.02;41.36
6942;BME280;3510;43.200;27.920;2023-04-01T10:31:01;99798.50;;;23.27;41.01
6942;BME280;3510;43.200;27.920;2023-04-01T10:33:56;99795.38;;;22.49;42.45
6942;BME280;3510;43.200;27.920;2023-04-01T10:36:43;99795.09;;;21.96;43.77
6942;BME280;3510;43.200;27.920;2023-04-01T10:39:34;99789.06;;;21.92;43.47
6942;BME280;3510;43.200;27.920;2023-04-01T10:48:12;99787.75;;;22.52;42.60
6942;BME280;3510;43.200;27.920;2023-04-01T10:51:02;99786.31;;;23.66;40.52
6942;BME280;3510;43.200;27.920;2023-04-01T10:53:37;99738.34;;;24.35;38.13
6942;BME280;3510;43.200;27.920;2023-04-01T10:56:12;99782.75;;;24.98;37.61
6942;BME280;3510;43.200;27.920;2023-04-01T10:58:51;99772.94;;;25.56;36.64
6942;BME280;3510;43.200;27.920;2023-04-01T11:01:45;99754.34;;;26.11;36.04
6942;BME280;3510;43.200;27.920;2023-04-01T11:13:27;99747.91;;;22.69;42.30
6942;BME280;3510;43.200;27.920;2023-04-01T11:16:13;99745.34;;;22.71;41.64
6942;BME280;3510;43.200;27.920;2023-04-01T11:21:53;99700.59;;;23.05;40.90
6942;BME280;3510;43.200;27.920;2023-04-01T11:24:41;99738.16;;;24.20;39.35
6942;BME280;3510;43.200;27.920;2023-04-01T11:27:23;99733.44;;;24.57;38.25
6942;BME280;3510;43.200;27.920;2023-04-01T11:30:09;99736.75;;;25.43;37.24
6942;BME280;3510;43.200;27.920;2023-04-01T11:32:49;99732.91;;;24.89;37.23
6942;BME280;3510;43.200;27.920;2023-04-01T11:35:37;99705.81;;;25.37;36.71
6942;BME280;3510;43.200;27.920;2023-04-01T11:38:19;99738.94;;;24.94;37.11
6942;BME280;3510;43.200;27.920;2023-04-01T11:40:52;99726.94;;;24.12;39.10
6942;BME280;3510;43.200;27.920;2023-04-01T11:43:29;99689.09;;;24.00;39.04
6942;BME280;3510;43.200;27.920;2023-04-01T11:46:05;99682.38;;;23.46;40.05
6942;BME280;3510;43.200;27.920;2023-04-01T11:48:46;99715.28;;;23.72;39.72
6942;BME280;3510;43.200;27.920;2023-04-01T11:51:34;99699.59;;;24.20;38.70
6942;BME280;3510;43.200;27.920;2023-04-01T11:54:14;99719.72;;;23.83;39.93
6942;BME280;3510;43.200;27.920;2023-04-01T11:56:51;99711.38;;;24.00;39.45
6942;BME280;3510;43.200;27.920;2023-04-01T12:27:19;99665.78;;;24.69;38.40
6942;BME280;3510;43.200;27.920;2023-04-01T12:30:11;99615.44;;;25.00;37.19
6942;BME280;3510;43.200;27.920;2023-04-01T12:33:05;99673.97;;;25.24;37.29
6942;BME280;3510;43.200;27.920;2023-04-01T12:36:00;99641.00;;;23.91;39.42
6942;BME280;3510;43.200;27.920;2023-04-01T12:38:56;99682.94;;;23.87;39.89
6942;BME280;3510;43.200;27.920;2023-04-01T12:41:46;99660.78;;;23.99;39.84
6942;BME280;3510;43.200;27.920;2023-04-01T12:50:50;99686.03;;;24.35;38.98
6942;BME280;3510;43.200;27.920;2023-04-01T12:54:02;99683.75;;;24.59;38.92
6942;BME280;3510;43.200;27.920;2023-04-01T12:56:42;99669.25;;;23.88;39.21
6942;BME280;3510;43.200;27.920;2023-04-01T12:59:41;99678.47;;;23.10;41.14
6942;BME280;3510;43.200;27.920;2023-04-01T13:15:09;99623.25;;;22.29;42.99
6942;BME280;3510;43.200;27.920;2023-04-01T13:17:57;99641.47;;;22.96;41.97
6942;BME280;3510;43.200;27.920;2023-04-01T13:20:44;99599.09;;;23.26;40.70
6942;BME280;3510;43.200;27.920;2023-04-01T13:23:35;99614.13;;;23.63;40.34
6942;BME280;3510;43.200;27.920;2023-04-01T13:26:28;99601.72;;;22.21;42.46
6942;BME280;3510;43.200;27.920;2023-04-01T13:29:03;99626.06;;;22.46;42.54
6942;BME280;3510;43.200;27.920;2023-04-01T13:31:59;99637.41;;;22.12;43.30
6942;BME280;3510;43.200;27.920;2023-04-01T13:34:37;99644.09;;;22.49;42.93
6942;BME280;3510;43.200;27.920;2023-04-01T13:37:17;99627.00;;;21.59;44.45
6942;BME280;3510;43.200;27.920;2023-04-01T13:39:58;99625.06;;;22.88;42.40
6942;BME280;3510;43.200;27.920;2023-04-01T13:42:35;99601.00;;;21.83;43.84
6942;BME280;3510;43.200;27.920;2023-04-01T13:45:13;99610.00;;;23.76;40.46
6942;BME280;3510;43.200;27.920;2023-04-01T13:47:59;99604.38;;;24.12;39.47
6942;BME280;3510;43.200;27.920;2023-04-01T13:50:41;99611.72;;;24.64;38.61
6942;BME280;3510;43.200;27.920;2023-04-01T13:53:23;99612.63;;;24.68;38.11
6942;BME280;3510;43.200;27.920;2023-04-01T13:56:13;99614.22;;;24.52;38.59
6942;BME280;3510;43.200;27.920;2023-04-01T13:58:52;99600.72;;;24.88;37.41
6942;BME280;3510;43.200;27.920;2023-04-01T14:01:31;99611.16;;;25.05;37.51
6942;BME280;3510;43.200;27.920;2023-04-01T14:04:21;99613.75;;;24.04;38.76
6942;BME280;3510;43.200;27.920;2023-04-01T14:07:00;99548.66;;;23.29;40.14
6942;BME280;3510;43.200;27.920;2023-04-01T14:12:29;99608.28;;;23.74;39.82
6942;BME280;3510;43.200;27.920;2023-04-01T14:15:11;99604.94;;;23.17;40.82
6942;BME280;3510;43.200;27.920;2023-04-01T14:17:56;99584.69;;;23.38;40.54
6942;BME280;3510;43.200;27.920;2023-04-01T14:20:31;99604.94;;;23.17;40.85
6942;BME280;3510;43.200;27.920;2023-04-01T14:23:13;99570.59;;;23.74;39.33
6942;BME280;3510;43.200;27.920;2023-04-01T14:26:01;99617.28;;;24.14;39.21
6942;BME280;3510;43.200;27.920;2023-04-01T14:28:33;99576.59;;;23.76;39.94
6942;BME280;3510;43.200;27.920;2023-04-01T14:31:16;99596.34;;;23.80;39.44
6942;BME280;3510;43.200;27.920;2023-04-01T14:33:57;99596.59;;;23.30;40.98
6942;BME280;3510;43.200;27.920;2023-04-01T14:36:41;99577.41;;;22.48;42.70
6942;BME280;3510;43.200;27.920;2023-04-01T14:39:24;99587.44;;;22.88;41.53
6942;BME280;3510;43.200;27.920;2023-04-01T14:42:08;99578.97;;;22.94;41.45
6942;BME280;3510;43.200;27.920;2023-04-01T14:44:56;99585.00;;;22.98;41.69
6942;BME280;3510;43.200;27.920;2023-04-01T14:47:42;99602.38;;;23.82;40.10
6942;BME280;3510;43.200;27.920;2023-04-01T14:50:14;99598.72;;;24.46;38.94
6942;BME280;3510;43.200;27.920;2023-04-01T14:52:49;99581.97;;;23.98;39.30
6942;BME280;3510;43.200;27.920;2023-04-01T14:55:27;99577.16;;;24.34;38.63
6942;BME280;3510;43.200;27.920;2023-04-01T14:57:59;99565.50;;;23.80;39.71
6942;BME280;3510;43.200;27.920;2023-04-01T15:00:26;99549.56;;;23.33;39.87
6942;BME280;3510;43.200;27.920;2023-04-01T15:02:57;99555.69;;;23.46;39.76
6942;BME280;3510;43.200;27.920;2023-04-01T15:05:35;99558.31;;;22.32;42.25
6942;BME280;3510;43.200;27.920;2023-04-01T15:08:14;99545.63;;;21.91;43.45
6942;BME280;3510;43.200;27.920;2023-04-01T15:10:53;99525.97;;;22.38;42.28
6942;BME280;3510;43.200;27.920;2023-04-01T15:13:35;99551.75;;;23.05;41.19
6942;BME280;3510;43.200;27.920;2023-04-01T15:16:13;99552.44;;;23.62;40.40
6942;BME280;3510;43.200;27.920;2023-04-01T15:18:56;99532.59;;;24.38;38.13
6942;BME280;3510;43.200;27.920;2023-04-01T15:21:41;99526.09;;;24.86;37.34